sensor_id;sensor_type;location;lat;lon;timestamp;P1;durP1;ratioP1;P2;durP2;ratioP2
59181;SDS011;45293;44.606;21.176;2022-10-31T00:02:14;154.30;;;46.30;;
59181;SDS011;45293;44.606;21.176;2022-10-31T00:04:40;124.70;;;43.28;;
59181;SDS011;45293;44.606;21.176;2022-10-31T00:07:06;135.20;;;44.55;;
59181;SDS011;45293;44.606;21.176;2022-10-31T00:09:32;148.45;;;45.20;;
59181;SDS011;45293;44.606;21.176;2022-10-31T00:11:58;136.32;;;47.50;;
59181;SDS011;45293;44.606;21.176;2022-10-31T00:14:24;138.95;;;44.28;;
59181;SDS011;45293;44.606;21.176;2022-10-31T00:16:50;152.40;;;45.35;;
59181;SDS011;45293;44.606;21.176;2022-10-31T00:19:16;139.95;;;44.95;;
59181;SDS011;45293;44.606;21.176;2022-10-31T00:21:43;192.45;;;44.90;;
59181;SDS011;45293;44.606;21.176;2022-10-31T00:24:10;168.63;;;44.45;;
59181;SDS011;45293;44.606;21.176;2022-10-31T00:26:36;215.70;;;48.67;;
59181;SDS011;45293;44.606;21.176;2022-10-31T00:29:02;213.73;;;46.60;;
59181;SDS011;45293;44.606;21.176;2022-10-31T00:31:28;244.52;;;49.33;;
59181;SDS011;45293;44.606;21.176;2022-10-31T00:33:55;180.02;;;49.45;;
59181;SDS011;45293;44.606;21.176;2022-10-31T00:36:21;178.95;;;46.53;;
59181;SDS011;45293;44.606;21.176;2022-10-31T00:38:47;206.73;;;48.38;;
59181;SDS011;45293;44.606;21.176;2022-10-31T00:41:14;204.18;;;43.65;;
59181;SDS011;45293;44.606;21.176;2022-10-31T00:43:42;220.98;;;46.97;;
59181;SDS011;45293;44.606;21.176;2022-10-31T00:46:08;156.35;;;49.38;;
59181;SDS011;45293;44.606;21.176;2022-10-31T00:48:34;205.00;;;42.88;;
59181;SDS011;45293;44.606;21.176;2022-10-31T00:51:00;191.43;;;41.13;;
59181;SDS011;45293;44.606;21.176;2022-10-31T00:53:26;182.05;;;40.42;;
59181;SDS011;45293;44.606;21.176;2022-10-31T00:55:53;291.10;;;43.60;;
59181;SDS011;45293;44.606;21.176;2022-10-31T00:58:19;199.18;;;43.58;;
59181;SDS011;45293;44.606;21.176;2022-10-31T01:00:46;199.13;;;44.10;;
59181;SDS011;45293;44.606;21.176;2022-10-31T01:03:12;229.35;;;44.15;;
59181;SDS011;45293;44.606;21.176;2022-10-31T01:05:38;377.02;;;46.20;;
59181;SDS011;45293;44.606;21.176;2022-10-31T01:08:05;196.80;;;43.13;;
59181;SDS011;45293;44.606;21.176;2022-10-31T01:10:31;253.73;;;48.00;;
59181;SDS011;45293;44.606;21.176;2022-10-31T01:12:57;252.45;;;46.53;;
59181;SDS011;45293;44.606;21.176;2022-10-31T01:15:23;183.07;;;45.60;;
59181;SDS011;45293;44.606;21.176;2022-10-31T01:17:49;229.45;;;43.83;;
59181;SDS011;45293;44.606;21.176;2022-10-31T01:20:16;208.73;;;45.22;;
59181;SDS011;45293;44.606;21.176;2022-10-31T01:22:42;264.33;;;43.50;;
59181;SDS011;45293;44.606;21.176;2022-10-31T01:25:08;189.90;;;43.08;;
59181;SDS011;45293;44.606;21.176;2022-10-31T01:27:35;322.00;;;42.33;;
59181;SDS011;45293;44.606;21.176;2022-10-31T01:30:01;182.70;;;39.20;;
59181;SDS011;45293;44.606;21.176;2022-10-31T01:32:27;194.23;;;40.53;;
59181;SDS011;45293;44.606;21.176;2022-10-31T01:34:56;158.18;;;37.83;;
59181;SDS011;45293;44.606;21.176;2022-10-31T01:37:22;226.20;;;39.70;;
59181;SDS011;45293;44.606;21.176;2022-10-31T01:39:48;204.52;;;40.08;;
59181;SDS011;45293;44.606;21.176;2022-10-31T01:42:15;187.90;;;40.83;;
59181;SDS011;45293;44.606;21.176;2022-10-31T01:47:13;225.50;;;39.83;;
59181;SDS011;45293;44.606;21.176;2022-10-31T01:49:54;166.70;;;39.33;;
59181;SDS011;45293;44.606;21.176;2022-10-31T01:52:24;122.10;;;37.83;;
59181;SDS011;45293;44.606;21.176;2022-10-31T01:57:26;128.40;;;34.50;;
59181;SDS011;45293;44.606;21.176;2022-10-31T01:59:54;143.52;;;35.95;;
59181;SDS011;45293;44.606;21.176;2022-10-31T02:02:20;152.35;;;33.58;;
59181;SDS011;45293;44.606;21.176;2022-10-31T02:04:47;116.43;;;34.53;;
59181;SDS011;45293;44.606;21.176;2022-10-31T02:07:14;132.77;;;35.67;;
59181;SDS011;45293;44.606;21.176;2022-10-31T02:09:41;136.45;;;36.05;;
59181;SDS011;45293;44.606;21.176;2022-10-31T02:12:09;127.85;;;36.08;;
59181;SDS011;45293;44.606;21.176;2022-10-31T02:14:36;156.77;;;34.55;;
59181;SDS011;45293;44.606;21.176;2022-10-31T02:17:03;118.90;;;31.77;;
59181;SDS011;45293;44.606;21.176;2022-10-31T02:27:32;88.25;;;31.92;;
59181;SDS011;45293;44.606;21.176;2022-10-31T02:37:48;86.55;;;32.80;;
59181;SDS011;45293;44.606;21.176;2022-10-31T02:40:26;196.77;;;35.23;;
59181;SDS011;45293;44.606;21.176;2022-10-31T02:45:29;111.22;;;30.75;;
59181;SDS011;45293;44.606;21.176;2022-10-31T02:47:58;143.73;;;32.22;;
59181;SDS011;45293;44.606;21.176;2022-10-31T02:50:27;108.53;;;30.63;;
59181;SDS011;45293;44.606;21.176;2022-10-31T02:52:54;93.95;;;31.15;;
59181;SDS011;45293;44.606;21.176;2022-10-31T02:58:03;87.90;;;30.35;;
59181;SDS011;45293;44.606;21.176;2022-10-31T03:00:31;116.22;;;30.70;;
59181;SDS011;45293;44.606;21.176;2022-10-31T03:13:14;73.30;;;29.50;;
59181;SDS011;45293;44.606;21.176;2022-10-31T03:15:44;68.55;;;31.63;;
59181;SDS011;45293;44.606;21.176;2022-10-31T03:18:21;80.47;;;31.45;;
59181;SDS011;45293;44.606;21.176;2022-10-31T03:20:53;69.72;;;30.65;;
59181;SDS011;45293;44.606;21.176;2022-10-31T03:23:19;70.65;;;31.60;;
59181;SDS011;45293;44.606;21.176;2022-10-31T03:25:47;65.65;;;30.63;;
59181;SDS011;45293;44.606;21.176;2022-10-31T03:28:15;84.00;;;32.97;;
59181;SDS011;45293;44.606;21.176;2022-10-31T03:30:42;66.68;;;29.83;;
59181;SDS011;45293;44.606;21.176;2022-10-31T03:33:10;65.15;;;28.73;;
59181;SDS011;45293;44.606;21.176;2022-10-31T03:35:40;80.13;;;29.63;;
59181;SDS011;45293;44.606;21.176;2022-10-31T03:38:07;81.95;;;29.40;;
59181;SDS011;45293;44.606;21.176;2022-10-31T03:40:35;136.13;;;30.58;;
59181;SDS011;45293;44.606;21.176;2022-10-31T03:43:06;79.88;;;30.20;;
59181;SDS011;45293;44.606;21.176;2022-10-31T03:45:35;86.43;;;29.60;;
59181;SDS011;45293;44.606;21.176;2022-10-31T03:48:03;70.20;;;29.45;;
59181;SDS011;45293;44.606;21.176;2022-10-31T03:50:33;95.60;;;30.33;;
59181;SDS011;45293;44.606;21.176;2022-10-31T03:53:04;66.93;;;29.23;;
59181;SDS011;45293;44.606;21.176;2022-10-31T03:55:31;74.05;;;30.95;;
59181;SDS011;45293;44.606;21.176;2022-10-31T04:00:24;79.05;;;29.33;;
59181;SDS011;45293;44.606;21.176;2022-10-31T04:05:16;65.13;;;28.65;;
59181;SDS011;45293;44.606;21.176;2022-10-31T04:07:44;67.15;;;28.35;;
59181;SDS011;45293;44.606;21.176;2022-10-31T04:10:12;79.28;;;29.42;;
59181;SDS011;45293;44.606;21.176;2022-10-31T04:12:39;65.15;;;29.33;;
59181;SDS011;45293;44.606;21.176;2022-10-31T04:15:05;76.40;;;29.20;;
59181;SDS011;45293;44.606;21.176;2022-10-31T04:17:34;75.72;;;30.10;;
59181;SDS011;45293;44.606;21.176;2022-10-31T04:20:01;72.18;;;28.60;;
59181;SDS011;45293;44.606;21.176;2022-10-31T04:22:27;76.72;;;31.75;;
59181;SDS011;45293;44.606;21.176;2022-10-31T04:24:53;78.65;;;29.63;;
59181;SDS011;45293;44.606;21.176;2022-10-31T04:27:19;79.80;;;31.13;;
59181;SDS011;45293;44.606;21.176;2022-10-31T04:29:45;76.65;;;31.25;;
59181;SDS011;45293;44.606;21.176;2022-10-31T04:32:11;76.00;;;30.75;;
59181;SDS011;45293;44.606;21.176;2022-10-31T04:34:37;86.80;;;31.67;;
59181;SDS011;45293;44.606;21.176;2022-10-31T04:37:03;70.55;;;29.77;;
59181;SDS011;45293;44.606;21.176;2022-10-31T04:39:30;73.78;;;30.02;;
59181;SDS011;45293;44.606;21.176;2022-10-31T04:41:56;89.28;;;31.92;;
59181;SDS011;45293;44.606;21.176;2022-10-31T04:44:22;91.68;;;31.27;;
59181;SDS011;45293;44.606;21.176;2022-10-31T04:46:48;86.45;;;31.00;;
59181;SDS011;45293;44.606;21.176;2022-10-31T04:49:14;88.90;;;30.63;;
59181;SDS011;45293;44.606;21.176;2022-10-31T04:51:40;80.10;;;29.67;;
59181;SDS011;45293;44.606;21.176;2022-10-31T04:54:06;83.88;;;31.83;;
59181;SDS011;45293;44.606;21.176;2022-10-31T04:56:32;65.90;;;29.45;;
59181;SDS011;45293;44.606;21.176;2022-10-31T04:58:58;69.35;;;29.70;;
59181;SDS011;45293;44.606;21.176;2022-10-31T05:01:24;67.75;;;29.95;;
59181;SDS011;45293;44.606;21.176;2022-10-31T05:03:51;87.07;;;33.25;;
59181;SDS011;45293;44.606;21.176;2022-10-31T05:06:17;76.38;;;29.77;;
59181;SDS011;45293;44.606;21.176;2022-10-31T05:08:43;87.75;;;32.63;;
59181;SDS011;45293;44.606;21.176;2022-10-31T05:11:09;94.85;;;30.85;;
59181;SDS011;45293;44.606;21.176;2022-10-31T05:13:36;80.00;;;30.48;;
59181;SDS011;45293;44.606;21.176;2022-10-31T05:16:02;91.13;;;32.45;;
59181;SDS011;45293;44.606;21.176;2022-10-31T05:18:28;72.75;;;29.73;;
59181;SDS011;45293;44.606;21.176;2022-10-31T05:20:54;77.93;;;31.73;;
59181;SDS011;45293;44.606;21.176;2022-10-31T05:23:20;95.07;;;31.70;;
59181;SDS011;45293;44.606;21.176;2022-10-31T05:25:46;94.18;;;31.35;;
59181;SDS011;45293;44.606;21.176;2022-10-31T05:28:12;97.38;;;31.45;;
59181;SDS011;45293;44.606;21.176;2022-10-31T05:30:38;103.22;;;33.00;;
59181;SDS011;45293;44.606;21.176;2022-10-31T05:33:04;91.63;;;32.00;;
59181;SDS011;45293;44.606;21.176;2022-10-31T05:35:31;86.40;;;30.00;;
59181;SDS011;45293;44.606;21.176;2022-10-31T05:37:57;94.45;;;31.30;;
59181;SDS011;45293;44.606;21.176;2022-10-31T05:40:24;90.43;;;32.35;;
59181;SDS011;45293;44.606;21.176;2022-10-31T05:42:51;93.55;;;34.22;;
59181;SDS011;45293;44.606;21.176;2022-10-31T05:45:17;96.20;;;32.35;;
59181;SDS011;45293;44.606;21.176;2022-10-31T05:47:50;81.22;;;31.35;;
59181;SDS011;45293;44.606;21.176;2022-10-31T05:50:16;100.65;;;32.42;;
59181;SDS011;45293;44.606;21.176;2022-10-31T05:52:43;84.38;;;32.95;;
59181;SDS011;45293;44.606;21.176;2022-10-31T05:55:09;83.70;;;30.95;;
59181;SDS011;45293;44.606;21.176;2022-10-31T05:57:35;75.13;;;31.63;;
59181;SDS011;45293;44.606;21.176;2022-10-31T06:00:01;83.35;;;28.83;;
59181;SDS011;45293;44.606;21.176;2022-10-31T06:02:27;70.93;;;29.50;;
59181;SDS011;45293;44.606;21.176;2022-10-31T06:04:57;73.07;;;30.70;;
59181;SDS011;45293;44.606;21.176;2022-10-31T06:07:23;72.47;;;28.95;;
59181;SDS011;45293;44.606;21.176;2022-10-31T06:09:49;75.97;;;28.42;;
59181;SDS011;45293;44.606;21.176;2022-10-31T06:12:15;71.15;;;29.17;;
59181;SDS011;45293;44.606;21.176;2022-10-31T06:14:41;78.40;;;29.10;;
59181;SDS011;45293;44.606;21.176;2022-10-31T06:17:07;103.78;;;31.83;;
59181;SDS011;45293;44.606;21.176;2022-10-31T06:19:33;85.55;;;31.08;;
59181;SDS011;45293;44.606;21.176;2022-10-31T06:21:59;82.90;;;30.65;;
59181;SDS011;45293;44.606;21.176;2022-10-31T06:24:25;94.68;;;31.45;;
59181;SDS011;45293;44.606;21.176;2022-10-31T06:26:51;90.80;;;30.90;;
59181;SDS011;45293;44.606;21.176;2022-10-31T06:29:17;83.90;;;32.08;;
59181;SDS011;45293;44.606;21.176;2022-10-31T06:31:44;84.93;;;31.42;;
59181;SDS011;45293;44.606;21.176;2022-10-31T06:34:10;93.18;;;34.08;;
59181;SDS011;45293;44.606;21.176;2022-10-31T06:36:36;100.15;;;34.40;;
59181;SDS011;45293;44.606;21.176;2022-10-31T06:39:02;89.72;;;32.42;;
59181;SDS011;45293;44.606;21.176;2022-10-31T06:41:28;88.32;;;32.60;;
59181;SDS011;45293;44.606;21.176;2022-10-31T06:43:54;94.60;;;32.90;;
59181;SDS011;45293;44.606;21.176;2022-10-31T06:46:20;87.57;;;32.35;;
59181;SDS011;45293;44.606;21.176;2022-10-31T06:48:46;86.90;;;30.05;;
59181;SDS011;45293;44.606;21.176;2022-10-31T06:51:12;91.45;;;31.98;;
59181;SDS011;45293;44.606;21.176;2022-10-31T06:53:38;92.75;;;31.75;;
59181;SDS011;45293;44.606;21.176;2022-10-31T06:56:04;81.10;;;31.15;;
59181;SDS011;45293;44.606;21.176;2022-10-31T06:58:30;93.38;;;29.50;;
59181;SDS011;45293;44.606;21.176;2022-10-31T07:00:58;87.10;;;31.70;;
59181;SDS011;45293;44.606;21.176;2022-10-31T07:03:25;83.35;;;32.55;;
59181;SDS011;45293;44.606;21.176;2022-10-31T07:05:51;100.78;;;33.20;;
59181;SDS011;45293;44.606;21.176;2022-10-31T07:08:17;93.05;;;32.22;;
59181;SDS011;45293;44.606;21.176;2022-10-31T07:10:50;96.85;;;37.78;;
59181;SDS011;45293;44.606;21.176;2022-10-31T07:13:16;82.72;;;31.05;;
59181;SDS011;45293;44.606;21.176;2022-10-31T07:15:42;132.35;;;31.17;;
59181;SDS011;45293;44.606;21.176;2022-10-31T07:18:09;109.85;;;31.90;;
59181;SDS011;45293;44.606;21.176;2022-10-31T07:20:36;107.95;;;33.05;;
59181;SDS011;45293;44.606;21.176;2022-10-31T07:23:02;71.38;;;29.50;;
59181;SDS011;45293;44.606;21.176;2022-10-31T07:25:28;90.25;;;31.50;;
59181;SDS011;45293;44.606;21.176;2022-10-31T07:27:54;82.70;;;31.92;;
59181;SDS011;45293;44.606;21.176;2022-10-31T07:30:21;97.60;;;31.75;;
59181;SDS011;45293;44.606;21.176;2022-10-31T07:32:47;82.68;;;33.05;;
59181;SDS011;45293;44.606;21.176;2022-10-31T07:35:18;86.88;;;31.20;;
59181;SDS011;45293;44.606;21.176;2022-10-31T07:37:44;86.70;;;28.95;;
59181;SDS011;45293;44.606;21.176;2022-10-31T07:40:10;73.90;;;30.65;;
59181;SDS011;45293;44.606;21.176;2022-10-31T07:42:37;109.60;;;27.63;;
59181;SDS011;45293;44.606;21.176;2022-10-31T07:45:04;72.72;;;28.30;;
59181;SDS011;45293;44.606;21.176;2022-10-31T07:47:37;91.07;;;27.58;;
59181;SDS011;45293;44.606;21.176;2022-10-31T07:50:04;76.65;;;26.02;;
59181;SDS011;45293;44.606;21.176;2022-10-31T07:52:30;87.60;;;27.15;;
59181;SDS011;45293;44.606;21.176;2022-10-31T07:54:56;65.30;;;27.67;;
59181;SDS011;45293;44.606;21.176;2022-10-31T07:57:22;68.18;;;28.38;;
59181;SDS011;45293;44.606;21.176;2022-10-31T07:59:48;62.78;;;27.38;;
59181;SDS011;45293;44.606;21.176;2022-10-31T08:02:14;60.05;;;25.48;;
59181;SDS011;45293;44.606;21.176;2022-10-31T08:04:40;62.53;;;25.90;;
59181;SDS011;45293;44.606;21.176;2022-10-31T08:07:06;60.85;;;26.77;;
59181;SDS011;45293;44.606;21.176;2022-10-31T08:09:32;60.05;;;27.58;;
59181;SDS011;45293;44.606;21.176;2022-10-31T08:11:58;67.05;;;26.75;;
59181;SDS011;45293;44.606;21.176;2022-10-31T08:14:26;65.82;;;30.10;;
59181;SDS011;45293;44.606;21.176;2022-10-31T08:16:52;66.72;;;28.88;;
59181;SDS011;45293;44.606;21.176;2022-10-31T08:19:19;70.88;;;29.35;;
59181;SDS011;45293;44.606;21.176;2022-10-31T08:21:45;83.72;;;32.63;;
59181;SDS011;45293;44.606;21.176;2022-10-31T08:24:11;80.38;;;28.88;;
59181;SDS011;45293;44.606;21.176;2022-10-31T08:26:37;74.72;;;30.60;;
59181;SDS011;45293;44.606;21.176;2022-10-31T08:29:03;55.92;;;27.17;;
59181;SDS011;45293;44.606;21.176;2022-10-31T08:31:29;55.40;;;25.88;;
59181;SDS011;45293;44.606;21.176;2022-10-31T08:33:56;54.85;;;25.35;;
59181;SDS011;45293;44.606;21.176;2022-10-31T08:36:22;56.67;;;25.85;;
59181;SDS011;45293;44.606;21.176;2022-10-31T08:38:48;50.25;;;24.45;;
59181;SDS011;45293;44.606;21.176;2022-10-31T08:41:14;53.38;;;24.98;;
59181;SDS011;45293;44.606;21.176;2022-10-31T08:43:40;49.60;;;23.00;;
59181;SDS011;45293;44.606;21.176;2022-10-31T08:46:06;56.10;;;24.77;;
59181;SDS011;45293;44.606;21.176;2022-10-31T08:48:32;59.90;;;25.60;;
59181;SDS011;45293;44.606;21.176;2022-10-31T08:50:58;51.85;;;25.17;;
59181;SDS011;45293;44.606;21.176;2022-10-31T08:53:25;54.45;;;23.23;;
59181;SDS011;45293;44.606;21.176;2022-10-31T08:55:54;52.38;;;24.95;;
59181;SDS011;45293;44.606;21.176;2022-10-31T08:58:20;63.03;;;28.00;;
59181;SDS011;45293;44.606;21.176;2022-10-31T09:00:47;63.83;;;26.85;;
59181;SDS011;45293;44.606;21.176;2022-10-31T09:03:15;57.95;;;26.77;;
59181;SDS011;45293;44.606;21.176;2022-10-31T09:05:41;61.40;;;27.35;;
59181;SDS011;45293;44.606;21.176;2022-10-31T09:08:07;60.63;;;27.63;;
59181;SDS011;45293;44.606;21.176;2022-10-31T09:10:34;52.72;;;27.08;;
59181;SDS011;45293;44.606;21.176;2022-10-31T09:13:05;55.47;;;26.27;;
59181;SDS011;45293;44.606;21.176;2022-10-31T09:15:32;65.93;;;28.27;;
59181;SDS011;45293;44.606;21.176;2022-10-31T09:17:58;61.05;;;29.77;;
59181;SDS011;45293;44.606;21.176;2022-10-31T09:20:26;61.03;;;28.17;;
59181;SDS011;45293;44.606;21.176;2022-10-31T09:22:59;60.03;;;29.35;;
59181;SDS011;45293;44.606;21.176;2022-10-31T09:27:55;53.60;;;27.65;;
59181;SDS011;45293;44.606;21.176;2022-10-31T09:30:21;62.75;;;29.10;;
59181;SDS011;45293;44.606;21.176;2022-10-31T09:32:47;59.35;;;29.02;;
59181;SDS011;45293;44.606;21.176;2022-10-31T09:35:13;59.65;;;30.33;;
59181;SDS011;45293;44.606;21.176;2022-10-31T09:37:39;63.17;;;29.02;;
59181;SDS011;45293;44.606;21.176;2022-10-31T09:40:05;54.63;;;27.95;;
59181;SDS011;45293;44.606;21.176;2022-10-31T09:42:38;53.78;;;26.98;;
59181;SDS011;45293;44.606;21.176;2022-10-31T09:45:10;57.33;;;28.42;;
59181;SDS011;45293;44.606;21.176;2022-10-31T09:52:33;65.70;;;29.38;;
59181;SDS011;45293;44.606;21.176;2022-10-31T09:55:05;80.13;;;36.95;;
59181;SDS011;45293;44.606;21.176;2022-10-31T09:57:35;71.18;;;34.38;;
59181;SDS011;45293;44.606;21.176;2022-10-31T10:00:06;72.88;;;32.78;;
59181;SDS011;45293;44.606;21.176;2022-10-31T10:02:35;70.65;;;33.03;;
59181;SDS011;45293;44.606;21.176;2022-10-31T10:05:09;67.15;;;32.17;;
59181;SDS011;45293;44.606;21.176;2022-10-31T10:07:44;61.83;;;31.23;;
59181;SDS011;45293;44.606;21.176;2022-10-31T10:20:59;71.38;;;34.85;;
59181;SDS011;45293;44.606;21.176;2022-10-31T10:26:02;80.57;;;36.90;;
59181;SDS011;45293;44.606;21.176;2022-10-31T10:28:35;72.22;;;35.75;;
59181;SDS011;45293;44.606;21.176;2022-10-31T10:31:05;75.95;;;36.97;;
59181;SDS011;45293;44.606;21.176;2022-10-31T10:33:35;70.68;;;36.70;;
59181;SDS011;45293;44.606;21.176;2022-10-31T10:36:06;78.63;;;37.83;;
59181;SDS011;45293;44.606;21.176;2022-10-31T10:38:34;80.35;;;36.88;;
59181;SDS011;45293;44.606;21.176;2022-10-31T10:41:02;78.35;;;37.95;;
59181;SDS011;45293;44.606;21.176;2022-10-31T10:43:30;68.50;;;35.80;;
59181;SDS011;45293;44.606;21.176;2022-10-31T10:54:03;92.53;;;38.95;;
59181;SDS011;45293;44.606;21.176;2022-10-31T10:59:12;78.55;;;38.92;;
59181;SDS011;45293;44.606;21.176;2022-10-31T11:01:39;80.25;;;37.83;;
59181;SDS011;45293;44.606;21.176;2022-10-31T11:04:25;68.18;;;37.50;;
59181;SDS011;45293;44.606;21.176;2022-10-31T11:07:02;72.15;;;36.42;;
59181;SDS011;45293;44.606;21.176;2022-10-31T11:09:28;85.20;;;40.47;;
59181;SDS011;45293;44.606;21.176;2022-10-31T11:11:55;76.05;;;39.42;;
59181;SDS011;45293;44.606;21.176;2022-10-31T11:14:21;70.32;;;37.75;;
59181;SDS011;45293;44.606;21.176;2022-10-31T11:16:50;73.70;;;40.17;;
59181;SDS011;45293;44.606;21.176;2022-10-31T11:19:26;82.18;;;38.95;;
59181;SDS011;45293;44.606;21.176;2022-10-31T11:21:52;78.63;;;39.70;;
59181;SDS011;45293;44.606;21.176;2022-10-31T11:24:20;74.28;;;38.78;;
59181;SDS011;45293;44.606;21.176;2022-10-31T11:26:47;80.40;;;39.40;;
59181;SDS011;45293;44.606;21.176;2022-10-31T11:29:21;82.57;;;41.22;;
59181;SDS011;45293;44.606;21.176;2022-10-31T11:31:50;72.47;;;39.85;;
59181;SDS011;45293;44.606;21.176;2022-10-31T11:34:30;70.65;;;37.30;;
59181;SDS011;45293;44.606;21.176;2022-10-31T11:36:59;81.65;;;38.30;;
59181;SDS011;45293;44.606;21.176;2022-10-31T11:39:27;78.20;;;38.75;;
59181;SDS011;45293;44.606;21.176;2022-10-31T11:41:53;81.70;;;40.05;;
59181;SDS011;45293;44.606;21.176;2022-10-31T11:46:53;73.90;;;36.85;;
59181;SDS011;45293;44.606;21.176;2022-10-31T11:51:47;76.60;;;37.28;;
59181;SDS011;45293;44.606;21.176;2022-10-31T11:54:22;72.00;;;37.88;;
59181;SDS011;45293;44.606;21.176;2022-10-31T11:56:48;76.13;;;35.67;;
59181;SDS011;45293;44.606;21.176;2022-10-31T11:59:22;62.30;;;34.20;;
59181;SDS011;45293;44.606;21.176;2022-10-31T12:01:49;59.30;;;33.97;;
59181;SDS011;45293;44.606;21.176;2022-10-31T12:04:16;69.82;;;34.85;;
59181;SDS011;45293;44.606;21.176;2022-10-31T12:06:43;73.40;;;34.63;;
59181;SDS011;45293;44.606;21.176;2022-10-31T12:09:22;55.88;;;33.35;;
59181;SDS011;45293;44.606;21.176;2022-10-31T12:11:56;60.70;;;32.83;;
59181;SDS011;45293;44.606;21.176;2022-10-31T12:16:55;59.15;;;32.22;;
59181;SDS011;45293;44.606;21.176;2022-10-31T12:19:29;56.47;;;32.50;;
59181;SDS011;45293;44.606;21.176;2022-10-31T12:22:20;51.78;;;28.98;;
59181;SDS011;45293;44.606;21.176;2022-10-31T12:24:51;53.78;;;29.20;;
59181;SDS011;45293;44.606;21.176;2022-10-31T12:32:41;48.65;;;26.83;;
59181;SDS011;45293;44.606;21.176;2022-10-31T12:35:21;47.88;;;27.70;;
59181;SDS011;45293;44.606;21.176;2022-10-31T12:38:10;56.03;;;30.85;;
59181;SDS011;45293;44.606;21.176;2022-10-31T12:45:52;52.92;;;29.10;;
59181;SDS011;45293;44.606;21.176;2022-10-31T13:01:27;52.65;;;26.63;;
59181;SDS011;45293;44.606;21.176;2022-10-31T13:06:41;53.95;;;25.25;;
59181;SDS011;45293;44.606;21.176;2022-10-31T13:09:10;54.95;;;28.25;;
59181;SDS011;45293;44.606;21.176;2022-10-31T13:11:39;52.22;;;27.17;;
59181;SDS011;45293;44.606;21.176;2022-10-31T13:17:02;50.53;;;27.48;;
59181;SDS011;45293;44.606;21.176;2022-10-31T13:19:30;62.35;;;30.83;;
59181;SDS011;45293;44.606;21.176;2022-10-31T13:21:58;54.88;;;28.98;;
59181;SDS011;45293;44.606;21.176;2022-10-31T13:24:39;54.95;;;29.52;;
59181;SDS011;45293;44.606;21.176;2022-10-31T13:27:26;55.30;;;29.73;;
59181;SDS011;45293;44.606;21.176;2022-10-31T13:30:04;61.58;;;32.30;;
59181;SDS011;45293;44.606;21.176;2022-10-31T13:32:41;61.20;;;32.55;;
59181;SDS011;45293;44.606;21.176;2022-10-31T13:35:13;54.00;;;29.80;;
59181;SDS011;45293;44.606;21.176;2022-10-31T13:37:44;57.75;;;29.08;;
59181;SDS011;45293;44.606;21.176;2022-10-31T13:45:12;63.90;;;31.77;;
59181;SDS011;45293;44.606;21.176;2022-10-31T13:47:38;62.17;;;31.70;;
59181;SDS011;45293;44.606;21.176;2022-10-31T13:52:51;59.70;;;30.40;;
59181;SDS011;45293;44.606;21.176;2022-10-31T13:58:22;65.07;;;33.75;;
59181;SDS011;45293;44.606;21.176;2022-10-31T14:01:49;64.40;;;32.65;;
59181;SDS011;45293;44.606;21.176;2022-10-31T14:03:45;61.40;;;32.58;;
59181;SDS011;45293;44.606;21.176;2022-10-31T14:06:11;79.07;;;32.67;;
59181;SDS011;45293;44.606;21.176;2022-10-31T14:08:39;62.58;;;32.20;;
59181;SDS011;45293;44.606;21.176;2022-10-31T14:11:07;59.47;;;32.50;;
59181;SDS011;45293;44.606;21.176;2022-10-31T14:13:40;61.95;;;33.65;;
59181;SDS011;45293;44.606;21.176;2022-10-31T14:16:17;66.80;;;33.92;;
59181;SDS011;45293;44.606;21.176;2022-10-31T14:18:45;98.05;;;33.15;;
59181;SDS011;45293;44.606;21.176;2022-10-31T14:23:49;77.63;;;33.25;;
59181;SDS011;45293;44.606;21.176;2022-10-31T14:34:01;61.03;;;31.48;;
59181;SDS011;45293;44.606;21.176;2022-10-31T14:36:34;64.18;;;31.13;;
59181;SDS011;45293;44.606;21.176;2022-10-31T14:39:15;72.63;;;33.63;;
59181;SDS011;45293;44.606;21.176;2022-10-31T14:41:51;72.35;;;32.15;;
59181;SDS011;45293;44.606;21.176;2022-10-31T14:44:39;70.65;;;32.47;;
59181;SDS011;45293;44.606;21.176;2022-10-31T14:47:12;72.72;;;32.17;;
59181;SDS011;45293;44.606;21.176;2022-10-31T14:52:24;65.20;;;32.33;;
59181;SDS011;45293;44.606;21.176;2022-10-31T14:54:52;63.33;;;33.13;;
59181;SDS011;45293;44.606;21.176;2022-10-31T14:57:26;67.32;;;33.40;;
59181;SDS011;45293;44.606;21.176;2022-10-31T14:59:55;69.85;;;32.70;;
59181;SDS011;45293;44.606;21.176;2022-10-31T15:04:49;74.45;;;35.33;;
59181;SDS011;45293;44.606;21.176;2022-10-31T15:07:18;75.03;;;34.78;;
59181;SDS011;45293;44.606;21.176;2022-10-31T15:09:45;82.72;;;37.00;;
59181;SDS011;45293;44.606;21.176;2022-10-31T15:14:49;81.63;;;37.97;;
59181;SDS011;45293;44.606;21.176;2022-10-31T15:17:16;81.38;;;39.20;;
59181;SDS011;45293;44.606;21.176;2022-10-31T15:19:42;81.15;;;39.08;;
59181;SDS011;45293;44.606;21.176;2022-10-31T15:22:10;76.22;;;37.55;;
59181;SDS011;45293;44.606;21.176;2022-10-31T15:24:40;85.90;;;38.35;;
59181;SDS011;45293;44.606;21.176;2022-10-31T15:27:11;85.32;;;40.80;;
59181;SDS011;45293;44.606;21.176;2022-10-31T15:29:47;92.88;;;40.33;;
59181;SDS011;45293;44.606;21.176;2022-10-31T15:32:20;98.63;;;40.65;;
59181;SDS011;45293;44.606;21.176;2022-10-31T15:34:47;97.55;;;40.42;;
59181;SDS011;45293;44.606;21.176;2022-10-31T15:37:15;94.13;;;41.17;;
59181;SDS011;45293;44.606;21.176;2022-10-31T15:39:42;90.72;;;38.00;;
59181;SDS011;45293;44.606;21.176;2022-10-31T15:44:41;102.30;;;43.58;;
59181;SDS011;45293;44.606;21.176;2022-10-31T15:47:13;89.55;;;43.85;;
59181;SDS011;45293;44.606;21.176;2022-10-31T15:49:48;97.40;;;45.95;;
59181;SDS011;45293;44.606;21.176;2022-10-31T15:55:01;85.32;;;41.50;;
59181;SDS011;45293;44.606;21.176;2022-10-31T15:57:28;90.35;;;39.65;;
59181;SDS011;45293;44.606;21.176;2022-10-31T15:59:55;88.30;;;39.95;;
59181;SDS011;45293;44.606;21.176;2022-10-31T16:02:25;87.75;;;42.53;;
59181;SDS011;45293;44.606;21.176;2022-10-31T16:04:58;87.20;;;39.47;;
59181;SDS011;45293;44.606;21.176;2022-10-31T16:07:26;95.78;;;40.25;;
59181;SDS011;45293;44.606;21.176;2022-10-31T16:09:59;100.60;;;41.38;;
59181;SDS011;45293;44.606;21.176;2022-10-31T16:12:36;97.38;;;40.83;;
59181;SDS011;45293;44.606;21.176;2022-10-31T16:15:03;97.43;;;44.05;;
59181;SDS011;45293;44.606;21.176;2022-10-31T16:17:29;100.03;;;45.00;;
59181;SDS011;45293;44.606;21.176;2022-10-31T16:22:26;107.40;;;43.60;;
59181;SDS011;45293;44.606;21.176;2022-10-31T16:24:55;110.70;;;48.30;;
59181;SDS011;45293;44.606;21.176;2022-10-31T16:27:23;111.55;;;44.42;;
59181;SDS011;45293;44.606;21.176;2022-10-31T16:29:54;90.15;;;43.53;;
59181;SDS011;45293;44.606;21.176;2022-10-31T16:34:57;110.25;;;44.92;;
59181;SDS011;45293;44.606;21.176;2022-10-31T16:37:23;110.88;;;48.80;;
59181;SDS011;45293;44.606;21.176;2022-10-31T16:39:49;97.25;;;45.70;;
59181;SDS011;45293;44.606;21.176;2022-10-31T16:42:15;98.70;;;46.80;;